sensor_id;sensor_type;location;lat;lon;timestamp;P1;durP1;ratioP1;P2;durP2;ratioP2
49842;SDS011;55559;48.898;9.184;2024-01-30T00:01:59;20.60;;;9.88;;
49842;SDS011;55559;48.898;9.184;2024-01-30T00:04:26;33.90;;;10.93;;
49842;SDS011;55559;48.898;9.184;2024-01-30T00:06:53;31.15;;;10.98;;
49842;SDS011;55559;48.898;9.184;2024-01-30T00:09:22;20.42;;;9.52;;
49842;SDS011;55559;48.898;9.184;2024-01-30T00:11:49;29.73;;;10.93;;
49842;SDS011;55559;48.898;9.184;2024-01-30T00:14:16;23.33;;;9.98;;
49842;SDS011;55559;48.898;9.184;2024-01-30T00:16:44;21.95;;;8.90;;
49842;SDS011;55559;48.898;9.184;2024-01-30T00:19:11;22.80;;;9.88;;
49842;SDS011;55559;48.898;9.184;2024-01-30T00:21:38;17.67;;;9.43;;
49842;SDS011;55559;48.898;9.184;2024-01-30T00:24:05;22.65;;;9.38;;
49842;SDS011;55559;48.898;9.184;2024-01-30T00:26:33;17.55;;;8.93;;
49842;SDS011;55559;48.898;9.184;2024-01-30T00:29:01;28.25;;;11.00;;
49842;SDS011;55559;48.898;9.184;2024-01-30T00:31:27;16.33;;;9.38;;
49842;SDS011;55559;48.898;9.184;2024-01-30T00:33:55;20.40;;;9.43;;
49842;SDS011;55559;48.898;9.184;2024-01-30T00:36:22;24.40;;;9.18;;
49842;SDS011;55559;48.898;9.184;2024-01-30T00:38:49;19.33;;;8.90;;
49842;SDS011;55559;48.898;9.184;2024-01-30T00:41:17;19.92;;;8.55;;
49842;SDS011;55559;48.898;9.184;2024-01-30T00:43:45;21.33;;;8.13;;
49842;SDS011;55559;48.898;9.184;2024-01-30T00:46:12;20.85;;;9.07;;
49842;SDS011;55559;48.898;9.184;2024-01-30T00:48:39;20.83;;;9.10;;
49842;SDS011;55559;48.898;9.184;2024-01-30T00:51:06;15.93;;;8.50;;
49842;SDS011;55559;48.898;9.184;2024-01-30T00:53:34;21.45;;;9.70;;
49842;SDS011;55559;48.898;9.184;2024-01-30T00:56:01;20.38;;;8.77;;
49842;SDS011;55559;48.898;9.184;2024-01-30T00:58:29;18.77;;;9.38;;
49842;SDS011;55559;48.898;9.184;2024-01-30T01:00:57;24.45;;;10.05;;
49842;SDS011;55559;48.898;9.184;2024-01-30T01:03:24;25.23;;;10.30;;
49842;SDS011;55559;48.898;9.184;2024-01-30T01:05:51;18.65;;;9.05;;
49842;SDS011;55559;48.898;9.184;2024-01-30T01:08:18;27.65;;;10.02;;
49842;SDS011;55559;48.898;9.184;2024-01-30T01:10:45;20.95;;;9.63;;
49842;SDS011;55559;48.898;9.184;2024-01-30T01:13:11;18.77;;;9.23;;
49842;SDS011;55559;48.898;9.184;2024-01-30T01:15:38;22.15;;;9.45;;
49842;SDS011;55559;48.898;9.184;2024-01-30T01:18:07;23.20;;;9.35;;
49842;SDS011;55559;48.898;9.184;2024-01-30T01:20:34;22.80;;;8.90;;
49842;SDS011;55559;48.898;9.184;2024-01-30T01:23:01;25.58;;;10.02;;
49842;SDS011;55559;48.898;9.184;2024-01-30T01:25:28;20.73;;;9.43;;
49842;SDS011;55559;48.898;9.184;2024-01-30T01:27:55;25.63;;;11.02;;
49842;SDS011;55559;48.898;9.184;2024-01-30T01:30:22;24.30;;;9.88;;
49842;SDS011;55559;48.898;9.184;2024-01-30T01:32:51;20.52;;;9.32;;
49842;SDS011;55559;48.898;9.184;2024-01-30T01:35:23;28.25;;;9.57;;
49842;SDS011;55559;48.898;9.184;2024-01-30T01:37:52;17.60;;;8.77;;
49842;SDS011;55559;48.898;9.184;2024-01-30T01:40:20;19.20;;;8.90;;
49842;SDS011;55559;48.898;9.184;2024-01-30T01:42:49;20.15;;;9.20;;
49842;SDS011;55559;48.898;9.184;2024-01-30T01:45:16;16.75;;;8.32;;
49842;SDS011;55559;48.898;9.184;2024-01-30T01:47:43;25.67;;;9.82;;
49842;SDS011;55559;48.898;9.184;2024-01-30T01:50:11;24.77;;;9.50;;
49842;SDS011;55559;48.898;9.184;2024-01-30T01:52:40;23.25;;;8.93;;
49842;SDS011;55559;48.898;9.184;2024-01-30T01:55:08;18.45;;;8.95;;
49842;SDS011;55559;48.898;9.184;2024-01-30T01:57:37;19.70;;;8.40;;
49842;SDS011;55559;48.898;9.184;2024-01-30T02:00:04;21.77;;;9.23;;
49842;SDS011;55559;48.898;9.184;2024-01-30T02:02:35;24.85;;;9.55;;
49842;SDS011;55559;48.898;9.184;2024-01-30T02:05:02;20.83;;;8.70;;
49842;SDS011;55559;48.898;9.184;2024-01-30T02:07:29;22.60;;;9.45;;
49842;SDS011;55559;48.898;9.184;2024-01-30T02:09:57;22.92;;;9.98;;
49842;SDS011;55559;48.898;9.184;2024-01-30T02:12:25;21.60;;;8.88;;
49842;SDS011;55559;48.898;9.184;2024-01-30T02:14:52;19.67;;;9.38;;
49842;SDS011;55559;48.898;9.184;2024-01-30T02:17:20;20.73;;;9.65;;
49842;SDS011;55559;48.898;9.184;2024-01-30T02:19:48;22.58;;;10.65;;
49842;SDS011;55559;48.898;9.184;2024-01-30T02:22:17;20.80;;;9.77;;
49842;SDS011;55559;48.898;9.184;2024-01-30T02:24:44;15.32;;;8.88;;
49842;SDS011;55559;48.898;9.184;2024-01-30T02:27:12;24.65;;;11.10;;
49842;SDS011;55559;48.898;9.184;2024-01-30T02:29:38;16.85;;;8.95;;
49842;SDS011;55559;48.898;9.184;2024-01-30T02:32:06;19.88;;;9.82;;
49842;SDS011;55559;48.898;9.184;2024-01-30T02:34:33;24.77;;;10.10;;
49842;SDS011;55559;48.898;9.184;2024-01-30T02:37:00;30.77;;;9.27;;
49842;SDS011;55559;48.898;9.184;2024-01-30T02:39:29;26.83;;;9.38;;
49842;SDS011;55559;48.898;9.184;2024-01-30T02:41:56;25.15;;;9.80;;
49842;SDS011;55559;48.898;9.184;2024-01-30T02:44:23;23.20;;;10.13;;
49842;SDS011;55559;48.898;9.184;2024-01-30T02:46:51;24.65;;;10.45;;
49842;SDS011;55559;48.898;9.184;2024-01-30T02:49:19;21.98;;;9.82;;
49842;SDS011;55559;48.898;9.184;2024-01-30T02:51:46;15.38;;;7.88;;
49842;SDS011;55559;48.898;9.184;2024-01-30T02:54:13;18.08;;;9.02;;
49842;SDS011;55559;48.898;9.184;2024-01-30T02:56:42;16.67;;;9.25;;
49842;SDS011;55559;48.898;9.184;2024-01-30T02:59:09;18.92;;;9.23;;
49842;SDS011;55559;48.898;9.184;2024-01-30T03:01:42;20.90;;;8.82;;
49842;SDS011;55559;48.898;9.184;2024-01-30T03:04:09;16.35;;;8.70;;
49842;SDS011;55559;48.898;9.184;2024-01-30T03:06:36;23.05;;;9.65;;
49842;SDS011;55559;48.898;9.184;2024-01-30T03:09:03;15.80;;;9.30;;
49842;SDS011;55559;48.898;9.184;2024-01-30T03:11:30;16.33;;;9.77;;
49842;SDS011;55559;48.898;9.184;2024-01-30T03:13:59;24.95;;;9.68;;
49842;SDS011;55559;48.898;9.184;2024-01-30T03:16:26;20.90;;;9.98;;
49842;SDS011;55559;48.898;9.184;2024-01-30T03:18:53;18.23;;;9.00;;
49842;SDS011;55559;48.898;9.184;2024-01-30T03:21:20;19.42;;;8.68;;
49842;SDS011;55559;48.898;9.184;2024-01-30T03:23:47;22.98;;;9.35;;
49842;SDS011;55559;48.898;9.184;2024-01-30T03:26:14;20.42;;;9.02;;
49842;SDS011;55559;48.898;9.184;2024-01-30T03:28:41;24.05;;;9.13;;
49842;SDS011;55559;48.898;9.184;2024-01-30T03:31:10;16.63;;;9.02;;
49842;SDS011;55559;48.898;9.184;2024-01-30T03:33:37;17.95;;;9.63;;
49842;SDS011;55559;48.898;9.184;2024-01-30T03:36:04;22.25;;;9.27;;
49842;SDS011;55559;48.898;9.184;2024-01-30T03:38:32;21.17;;;9.70;;
49842;SDS011;55559;48.898;9.184;2024-01-30T03:40:59;20.92;;;9.90;;
49842;SDS011;55559;48.898;9.184;2024-01-30T03:43:26;16.33;;;8.38;;
49842;SDS011;55559;48.898;9.184;2024-01-30T03:45:53;17.77;;;9.95;;
49842;SDS011;55559;48.898;9.184;2024-01-30T03:48:22;20.45;;;10.93;;
49842;SDS011;55559;48.898;9.184;2024-01-30T03:50:49;18.40;;;8.90;;
49842;SDS011;55559;48.898;9.184;2024-01-30T03:53:21;18.35;;;8.90;;
49842;SDS011;55559;48.898;9.184;2024-01-30T03:55:48;16.85;;;9.25;;
49842;SDS011;55559;48.898;9.184;2024-01-30T03:58:15;21.27;;;9.00;;
49842;SDS011;55559;48.898;9.184;2024-01-30T04:00:42;16.90;;;8.40;;
49842;SDS011;55559;48.898;9.184;2024-01-30T04:03:10;20.35;;;9.02;;
49842;SDS011;55559;48.898;9.184;2024-01-30T04:05:38;19.83;;;8.95;;
49842;SDS011;55559;48.898;9.184;2024-01-30T04:08:06;22.63;;;8.25;;
49842;SDS011;55559;48.898;9.184;2024-01-30T04:10:33;18.10;;;8.77;;
49842;SDS011;55559;48.898;9.184;2024-01-30T04:13:00;19.42;;;9.07;;
49842;SDS011;55559;48.898;9.184;2024-01-30T04:15:27;18.23;;;8.63;;
49842;SDS011;55559;48.898;9.184;2024-01-30T04:17:57;19.02;;;8.75;;
49842;SDS011;55559;48.898;9.184;2024-01-30T04:20:24;24.73;;;10.15;;
49842;SDS011;55559;48.898;9.184;2024-01-30T04:22:53;22.60;;;9.60;;
49842;SDS011;55559;48.898;9.184;2024-01-30T04:25:20;21.10;;;9.05;;
49842;SDS011;55559;48.898;9.184;2024-01-30T04:27:47;17.75;;;8.95;;
49842;SDS011;55559;48.898;9.184;2024-01-30T04:37:18;13.82;;;7.53;;
49842;SDS011;55559;48.898;9.184;2024-01-30T04:39:46;14.65;;;8.13;;
49842;SDS011;55559;48.898;9.184;2024-01-30T04:42:13;21.13;;;8.15;;
49842;SDS011;55559;48.898;9.184;2024-01-30T04:44:40;17.88;;;8.68;;
49842;SDS011;55559;48.898;9.184;2024-01-30T04:47:07;21.08;;;8.25;;
49842;SDS011;55559;48.898;9.184;2024-01-30T04:49:36;16.65;;;8.10;;
49842;SDS011;55559;48.898;9.184;2024-01-30T04:52:04;13.40;;;7.68;;
49842;SDS011;55559;48.898;9.184;2024-01-30T04:54:31;19.27;;;8.45;;
49842;SDS011;55559;48.898;9.184;2024-01-30T04:57:00;12.75;;;7.47;;
49842;SDS011;55559;48.898;9.184;2024-01-30T04:59:27;15.32;;;6.60;;
49842;SDS011;55559;48.898;9.184;2024-01-30T05:01:54;12.25;;;7.18;;
49842;SDS011;55559;48.898;9.184;2024-01-30T05:04:21;17.13;;;8.15;;
49842;SDS011;55559;48.898;9.184;2024-01-30T05:06:48;13.32;;;7.70;;
49842;SDS011;55559;48.898;9.184;2024-01-30T05:09:15;18.58;;;6.78;;
49842;SDS011;55559;48.898;9.184;2024-01-30T05:11:42;16.75;;;7.35;;
49842;SDS011;55559;48.898;9.184;2024-01-30T05:14:11;15.80;;;8.10;;
49842;SDS011;55559;48.898;9.184;2024-01-30T05:16:40;14.13;;;8.70;;
49842;SDS011;55559;48.898;9.184;2024-01-30T05:19:08;19.95;;;8.23;;
49842;SDS011;55559;48.898;9.184;2024-01-30T05:21:35;13.93;;;7.75;;
49842;SDS011;55559;48.898;9.184;2024-01-30T05:24:02;13.63;;;7.30;;
49842;SDS011;55559;48.898;9.184;2024-01-30T05:26:29;21.70;;;8.35;;
49842;SDS011;55559;48.898;9.184;2024-01-30T05:28:56;15.30;;;7.47;;
49842;SDS011;55559;48.898;9.184;2024-01-30T05:31:25;16.70;;;7.97;;
49842;SDS011;55559;48.898;9.184;2024-01-30T05:33:52;23.73;;;8.52;;
49842;SDS011;55559;48.898;9.184;2024-01-30T05:36:19;17.83;;;8.18;;
49842;SDS011;55559;48.898;9.184;2024-01-30T05:38:47;17.02;;;8.18;;
49842;SDS011;55559;48.898;9.184;2024-01-30T05:41:14;15.95;;;7.68;;
49842;SDS011;55559;48.898;9.184;2024-01-30T05:43:41;18.35;;;7.85;;
49842;SDS011;55559;48.898;9.184;2024-01-30T05:46:09;13.80;;;7.68;;
49842;SDS011;55559;48.898;9.184;2024-01-30T05:48:37;21.38;;;8.50;;
49842;SDS011;55559;48.898;9.184;2024-01-30T05:51:04;19.45;;;7.82;;
49842;SDS011;55559;48.898;9.184;2024-01-30T05:53:33;18.30;;;7.70;;
49842;SDS011;55559;48.898;9.184;2024-01-30T05:56:01;14.85;;;9.02;;
49842;SDS011;55559;48.898;9.184;2024-01-30T05:58:28;17.40;;;8.77;;
49842;SDS011;55559;48.898;9.184;2024-01-30T06:00:56;13.48;;;7.38;;
49842;SDS011;55559;48.898;9.184;2024-01-30T06:03:24;18.13;;;8.65;;
49842;SDS011;55559;48.898;9.184;2024-01-30T06:05:52;14.95;;;7.18;;
49842;SDS011;55559;48.898;9.184;2024-01-30T06:08:19;17.17;;;7.20;;
49842;SDS011;55559;48.898;9.184;2024-01-30T06:10:47;14.65;;;7.60;;
49842;SDS011;55559;48.898;9.184;2024-01-30T06:13:14;17.90;;;8.82;;
49842;SDS011;55559;48.898;9.184;2024-01-30T06:15:41;14.23;;;7.85;;
49842;SDS011;55559;48.898;9.184;2024-01-30T06:18:08;16.65;;;7.95;;
49842;SDS011;55559;48.898;9.184;2024-01-30T06:20:36;16.70;;;7.53;;
49842;SDS011;55559;48.898;9.184;2024-01-30T06:23:04;17.15;;;8.15;;
49842;SDS011;55559;48.898;9.184;2024-01-30T06:25:31;17.02;;;7.63;;
49842;SDS011;55559;48.898;9.184;2024-01-30T06:27:58;14.07;;;6.97;;
49842;SDS011;55559;48.898;9.184;2024-01-30T06:30:25;17.52;;;8.45;;
49842;SDS011;55559;48.898;9.184;2024-01-30T06:32:52;16.73;;;7.88;;
49842;SDS011;55559;48.898;9.184;2024-01-30T06:35:20;14.13;;;7.45;;
49842;SDS011;55559;48.898;9.184;2024-01-30T06:37:47;12.88;;;7.85;;
49842;SDS011;55559;48.898;9.184;2024-01-30T06:40:15;17.02;;;8.82;;
49842;SDS011;55559;48.898;9.184;2024-01-30T06:42:42;22.10;;;9.27;;
49842;SDS011;55559;48.898;9.184;2024-01-30T06:45:10;16.30;;;8.23;;
49842;SDS011;55559;48.898;9.184;2024-01-30T06:47:37;18.60;;;10.18;;
49842;SDS011;55559;48.898;9.184;2024-01-30T06:50:07;13.70;;;8.90;;
49842;SDS011;55559;48.898;9.184;2024-01-30T06:52:34;21.45;;;8.52;;
49842;SDS011;55559;48.898;9.184;2024-01-30T06:55:01;17.85;;;8.27;;
49842;SDS011;55559;48.898;9.184;2024-01-30T06:57:30;20.20;;;9.38;;
49842;SDS011;55559;48.898;9.184;2024-01-30T06:59:57;15.85;;;8.23;;
49842;SDS011;55559;48.898;9.184;2024-01-30T07:02:24;19.42;;;8.88;;
49842;SDS011;55559;48.898;9.184;2024-01-30T07:04:51;17.42;;;7.95;;
49842;SDS011;55559;48.898;9.184;2024-01-30T07:07:18;18.50;;;8.20;;
49842;SDS011;55559;48.898;9.184;2024-01-30T07:09:45;20.55;;;9.45;;
49842;SDS011;55559;48.898;9.184;2024-01-30T07:12:15;20.45;;;9.32;;
49842;SDS011;55559;48.898;9.184;2024-01-30T07:14:43;22.65;;;8.65;;
49842;SDS011;55559;48.898;9.184;2024-01-30T07:17:10;17.63;;;9.20;;
49842;SDS011;55559;48.898;9.184;2024-01-30T07:19:37;21.58;;;9.55;;
49842;SDS011;55559;48.898;9.184;2024-01-30T07:22:05;25.58;;;9.20;;
49842;SDS011;55559;48.898;9.184;2024-01-30T07:24:32;20.88;;;8.02;;
49842;SDS011;55559;48.898;9.184;2024-01-30T07:26:59;23.17;;;8.82;;
49842;SDS011;55559;48.898;9.184;2024-01-30T07:29:26;22.70;;;9.50;;
49842;SDS011;55559;48.898;9.184;2024-01-30T07:31:54;16.92;;;7.88;;
49842;SDS011;55559;48.898;9.184;2024-01-30T07:34:21;13.75;;;7.30;;
49842;SDS011;55559;48.898;9.184;2024-01-30T07:36:48;12.93;;;7.88;;
49842;SDS011;55559;48.898;9.184;2024-01-30T07:39:15;23.52;;;8.07;;
49842;SDS011;55559;48.898;9.184;2024-01-30T07:41:42;17.08;;;7.10;;
49842;SDS011;55559;48.898;9.184;2024-01-30T07:44:09;18.00;;;8.32;;
49842;SDS011;55559;48.898;9.184;2024-01-30T07:46:36;23.65;;;8.18;;
49842;SDS011;55559;48.898;9.184;2024-01-30T07:49:05;20.60;;;8.43;;
49842;SDS011;55559;48.898;9.184;2024-01-30T07:51:32;18.48;;;6.95;;
49842;SDS011;55559;48.898;9.184;2024-01-30T07:53:59;15.70;;;7.28;;
49842;SDS011;55559;48.898;9.184;2024-01-30T07:56:27;14.80;;;7.15;;
49842;SDS011;55559;48.898;9.184;2024-01-30T07:58:54;15.68;;;7.90;;
49842;SDS011;55559;48.898;9.184;2024-01-30T08:01:21;19.70;;;8.65;;
49842;SDS011;55559;48.898;9.184;2024-01-30T08:03:48;17.48;;;7.95;;
49842;SDS011;55559;48.898;9.184;2024-01-30T08:06:17;19.02;;;8.80;;
49842;SDS011;55559;48.898;9.184;2024-01-30T08:08:44;19.48;;;8.07;;
49842;SDS011;55559;48.898;9.184;2024-01-30T08:11:11;16.63;;;8.27;;
49842;SDS011;55559;48.898;9.184;2024-01-30T08:13:39;19.27;;;8.13;;
49842;SDS011;55559;48.898;9.184;2024-01-30T08:16:06;21.60;;;7.57;;
49842;SDS011;55559;48.898;9.184;2024-01-30T08:18:33;16.52;;;6.82;;
49842;SDS011;55559;48.898;9.184;2024-01-30T08:21:00;20.95;;;8.15;;
49842;SDS011;55559;48.898;9.184;2024-01-30T08:23:29;18.83;;;8.35;;
49842;SDS011;55559;48.898;9.184;2024-01-30T08:25:56;27.35;;;7.97;;
49842;SDS011;55559;48.898;9.184;2024-01-30T08:28:23;15.38;;;7.88;;
49842;SDS011;55559;48.898;9.184;2024-01-30T08:30:50;23.25;;;9.40;;
49842;SDS011;55559;48.898;9.184;2024-01-30T08:33:17;17.52;;;7.80;;
49842;SDS011;55559;48.898;9.184;2024-01-30T08:35:44;13.23;;;7.32;;
49842;SDS011;55559;48.898;9.184;2024-01-30T08:38:11;22.30;;;8.10;;
49842;SDS011;55559;48.898;9.184;2024-01-30T08:40:40;23.55;;;7.43;;
49842;SDS011;55559;48.898;9.184;2024-01-30T08:43:07;15.25;;;7.95;;
49842;SDS011;55559;48.898;9.184;2024-01-30T08:45:35;19.73;;;8.13;;
49842;SDS011;55559;48.898;9.184;2024-01-30T08:48:03;16.90;;;7.63;;
49842;SDS011;55559;48.898;9.184;2024-01-30T08:50:30;18.33;;;7.95;;
49842;SDS011;55559;48.898;9.184;2024-01-30T08:52:57;14.82;;;6.82;;
49842;SDS011;55559;48.898;9.184;2024-01-30T08:55:24;16.83;;;7.20;;
49842;SDS011;55559;48.898;9.184;2024-01-30T08:57:52;17.75;;;7.60;;
49842;SDS011;55559;48.898;9.184;2024-01-30T09:00:19;17.50;;;7.43;;
49842;SDS011;55559;48.898;9.184;2024-01-30T09:02:47;16.70;;;6.68;;
49842;SDS011;55559;48.898;9.184;2024-01-30T09:05:14;16.85;;;6.07;;
49842;SDS011;55559;48.898;9.184;2024-01-30T09:07:41;15.55;;;6.82;;
49842;SDS011;55559;48.898;9.184;2024-01-30T09:10:08;13.45;;;6.97;;
49842;SDS011;55559;48.898;9.184;2024-01-30T09:12:35;13.27;;;6.80;;
49842;SDS011;55559;48.898;9.184;2024-01-30T09:15:05;18.70;;;6.70;;
49842;SDS011;55559;48.898;9.184;2024-01-30T09:17:33;18.73;;;8.43;;
49842;SDS011;55559;48.898;9.184;2024-01-30T09:19:59;14.48;;;6.20;;
49842;SDS011;55559;48.898;9.184;2024-01-30T09:22:28;24.25;;;6.60;;
49842;SDS011;55559;48.898;9.184;2024-01-30T09:24:55;24.05;;;7.80;;
49842;SDS011;55559;48.898;9.184;2024-01-30T09:27:22;18.30;;;7.00;;
49842;SDS011;55559;48.898;9.184;2024-01-30T09:29:49;21.85;;;8.38;;
49842;SDS011;55559;48.898;9.184;2024-01-30T09:32:19;13.27;;;7.85;;
49842;SDS011;55559;48.898;9.184;2024-01-30T09:34:46;17.55;;;6.38;;
49842;SDS011;55559;48.898;9.184;2024-01-30T09:37:14;10.75;;;6.25;;
49842;SDS011;55559;48.898;9.184;2024-01-30T09:39:43;14.20;;;5.38;;
49842;SDS011;55559;48.898;9.184;2024-01-30T09:42:11;24.08;;;7.60;;
49842;SDS011;55559;48.898;9.184;2024-01-30T09:44:43;15.07;;;5.70;;
49842;SDS011;55559;48.898;9.184;2024-01-30T09:47:10;19.27;;;5.13;;
49842;SDS011;55559;48.898;9.184;2024-01-30T09:49:38;16.88;;;6.30;;
49842;SDS011;55559;48.898;9.184;2024-01-30T09:52:07;11.85;;;6.22;;
49842;SDS011;55559;48.898;9.184;2024-01-30T09:54:34;16.42;;;5.95;;
49842;SDS011;55559;48.898;9.184;2024-01-30T09:57:02;26.23;;;6.20;;
49842;SDS011;55559;48.898;9.184;2024-01-30T09:59:29;11.73;;;5.88;;
49842;SDS011;55559;48.898;9.184;2024-01-30T10:01:56;16.35;;;6.00;;
49842;SDS011;55559;48.898;9.184;2024-01-30T10:04:24;12.82;;;5.80;;
49842;SDS011;55559;48.898;9.184;2024-01-30T10:06:52;8.75;;;5.43;;
49842;SDS011;55559;48.898;9.184;2024-01-30T10:09:19;10.40;;;4.43;;
49842;SDS011;55559;48.898;9.184;2024-01-30T10:11:47;17.02;;;6.68;;
49842;SDS011;55559;48.898;9.184;2024-01-30T10:14:15;12.68;;;5.90;;
49842;SDS011;55559;48.898;9.184;2024-01-30T10:16:42;13.60;;;5.47;;
49842;SDS011;55559;48.898;9.184;2024-01-30T10:19:11;15.85;;;5.90;;
49842;SDS011;55559;48.898;9.184;2024-01-30T10:21:38;14.15;;;5.75;;
49842;SDS011;55559;48.898;9.184;2024-01-30T10:24:07;15.63;;;6.55;;
49842;SDS011;55559;48.898;9.184;2024-01-30T10:26:34;15.77;;;6.15;;
49842;SDS011;55559;48.898;9.184;2024-01-30T10:29:03;13.43;;;5.85;;
49842;SDS011;55559;48.898;9.184;2024-01-30T10:31:31;16.48;;;6.40;;
49842;SDS011;55559;48.898;9.184;2024-01-30T10:33:58;13.57;;;6.38;;
49842;SDS011;55559;48.898;9.184;2024-01-30T10:36:27;18.17;;;7.53;;
49842;SDS011;55559;48.898;9.184;2024-01-30T10:38:55;19.15;;;7.43;;
49842;SDS011;55559;48.898;9.184;2024-01-30T10:41:24;15.20;;;6.50;;
49842;SDS011;55559;48.898;9.184;2024-01-30T10:43:55;18.90;;;7.53;;
49842;SDS011;55559;48.898;9.184;2024-01-30T10:46:25;13.10;;;6.22;;
49842;SDS011;55559;48.898;9.184;2024-01-30T10:48:57;14.27;;;7.25;;
49842;SDS011;55559;48.898;9.184;2024-01-30T10:51:24;13.73;;;6.25;;
49842;SDS011;55559;48.898;9.184;2024-01-30T10:53:52;18.58;;;6.07;;
49842;SDS011;55559;48.898;9.184;2024-01-30T10:56:20;18.98;;;7.45;;
49842;SDS011;55559;48.898;9.184;2024-01-30T10:58:49;16.13;;;6.35;;
49842;SDS011;55559;48.898;9.184;2024-01-30T11:01:16;12.55;;;7.13;;
49842;SDS011;55559;48.898;9.184;2024-01-30T11:03:48;15.13;;;6.72;;
49842;SDS011;55559;48.898;9.184;2024-01-30T11:06:16;12.82;;;6.65;;
49842;SDS011;55559;48.898;9.184;2024-01-30T11:08:44;21.42;;;7.20;;
49842;SDS011;55559;48.898;9.184;2024-01-30T11:11:12;16.63;;;6.65;;
49842;SDS011;55559;48.898;9.184;2024-01-30T11:13:39;20.98;;;9.52;;
49842;SDS011;55559;48.898;9.184;2024-01-30T11:16:08;22.48;;;9.55;;
49842;SDS011;55559;48.898;9.184;2024-01-30T11:18:38;16.55;;;6.43;;
49842;SDS011;55559;48.898;9.184;2024-01-30T11:21:05;13.00;;;6.80;;
49842;SDS011;55559;48.898;9.184;2024-01-30T11:23:33;14.25;;;6.55;;
49842;SDS011;55559;48.898;9.184;2024-01-30T11:26:01;27.92;;;8.32;;
49842;SDS011;55559;48.898;9.184;2024-01-30T11:28:31;19.45;;;8.30;;
49842;SDS011;55559;48.898;9.184;2024-01-30T11:31:02;18.83;;;7.65;;
49842;SDS011;55559;48.898;9.184;2024-01-30T11:33:31;19.48;;;7.53;;
49842;SDS011;55559;48.898;9.184;2024-01-30T11:35:59;20.13;;;7.25;;
49842;SDS011;55559;48.898;9.184;2024-01-30T11:38:26;16.80;;;6.85;;
49842;SDS011;55559;48.898;9.184;2024-01-30T11:40:54;19.30;;;6.43;;
49842;SDS011;55559;48.898;9.184;2024-01-30T11:43:21;12.15;;;5.97;;
49842;SDS011;55559;48.898;9.184;2024-01-30T11:45:48;11.45;;;5.65;;
49842;SDS011;55559;48.898;9.184;2024-01-30T11:48:16;19.00;;;6.65;;
49842;SDS011;55559;48.898;9.184;2024-01-30T11:50:45;12.43;;;6.60;;
49842;SDS011;55559;48.898;9.184;2024-01-30T11:53:12;13.38;;;6.95;;
49842;SDS011;55559;48.898;9.184;2024-01-30T11:55:39;16.25;;;6.93;;
49842;SDS011;55559;48.898;9.184;2024-01-30T11:58:06;17.67;;;7.28;;
49842;SDS011;55559;48.898;9.184;2024-01-30T12:00:33;20.50;;;6.60;;
49842;SDS011;55559;48.898;9.184;2024-01-30T12:03:00;12.27;;;6.95;;
49842;SDS011;55559;48.898;9.184;2024-01-30T12:05:28;15.48;;;6.57;;
49842;SDS011;55559;48.898;9.184;2024-01-30T12:07:57;18.40;;;7.15;;
49842;SDS011;55559;48.898;9.184;2024-01-30T12:10:25;17.80;;;6.70;;
49842;SDS011;55559;48.898;9.184;2024-01-30T12:12:52;21.77;;;8.32;;
49842;SDS011;55559;48.898;9.184;2024-01-30T12:15:21;16.08;;;6.78;;
49842;SDS011;55559;48.898;9.184;2024-01-30T12:17:48;13.20;;;6.22;;
49842;SDS011;55559;48.898;9.184;2024-01-30T12:20:17;25.88;;;8.20;;
49842;SDS011;55559;48.898;9.184;2024-01-30T12:22:44;21.77;;;8.02;;
49842;SDS011;55559;48.898;9.184;2024-01-30T12:25:13;19.55;;;7.85;;
49842;SDS011;55559;48.898;9.184;2024-01-30T12:27:42;18.15;;;8.35;;
49842;SDS011;55559;48.898;9.184;2024-01-30T12:30:09;15.75;;;6.95;;
49842;SDS011;55559;48.898;9.184;2024-01-30T12:32:37;16.20;;;8.35;;
49842;SDS011;55559;48.898;9.184;2024-01-30T12:35:07;10.45;;;6.82;;
49842;SDS011;55559;48.898;9.184;2024-01-30T12:37:34;17.33;;;7.75;;
49842;SDS011;55559;48.898;9.184;2024-01-30T12:40:01;23.42;;;7.60;;
49842;SDS011;55559;48.898;9.184;2024-01-30T12:42:30;17.38;;;7.13;;
49842;SDS011;55559;48.898;9.184;2024-01-30T12:44:57;18.85;;;7.82;;
49842;SDS011;55559;48.898;9.184;2024-01-30T12:47:24;27.00;;;10.32;;
49842;SDS011;55559;48.898;9.184;2024-01-30T12:49:51;15.65;;;9.15;;
49842;SDS011;55559;48.898;9.184;2024-01-30T12:52:19;22.88;;;13.35;;
49842;SDS011;55559;48.898;9.184;2024-01-30T12:54:46;27.38;;;13.80;;
49842;SDS011;55559;48.898;9.184;2024-01-30T12:57:13;25.02;;;12.40;;
49842;SDS011;55559;48.898;9.184;2024-01-30T12:59:43;29.58;;;11.40;;
49842;SDS011;55559;48.898;9.184;2024-01-30T13:02:10;16.05;;;8.45;;
49842;SDS011;55559;48.898;9.184;2024-01-30T13:04:37;26.13;;;10.80;;
49842;SDS011;55559;48.898;9.184;2024-01-30T13:07:04;10.27;;;6.95;;
49842;SDS011;55559;48.898;9.184;2024-01-30T13:09:31;14.27;;;7.40;;
49842;SDS011;55559;48.898;9.184;2024-01-30T13:11:59;14.95;;;7.43;;
49842;SDS011;55559;48.898;9.184;2024-01-30T13:14:26;16.25;;;7.43;;
49842;SDS011;55559;48.898;9.184;2024-01-30T13:16:56;16.88;;;7.07;;
49842;SDS011;55559;48.898;9.184;2024-01-30T13:19:24;15.48;;;7.25;;
49842;SDS011;55559;48.898;9.184;2024-01-30T13:21:51;13.00;;;6.95;;
49842;SDS011;55559;48.898;9.184;2024-01-30T13:24:18;14.55;;;6.50;;
49842;SDS011;55559;48.898;9.184;2024-01-30T13:26:46;18.00;;;7.03;;
49842;SDS011;55559;48.898;9.184;2024-01-30T13:29:14;12.82;;;7.50;;
49842;SDS011;55559;48.898;9.184;2024-01-30T13:31:41;12.65;;;6.90;;
49842;SDS011;55559;48.898;9.184;2024-01-30T13:34:11;10.50;;;6.28;;
49842;SDS011;55559;48.898;9.184;2024-01-30T13:36:39;20.05;;;7.50;;
49842;SDS011;55559;48.898;9.184;2024-01-30T13:39:06;12.60;;;6.55;;
49842;SDS011;55559;48.898;9.184;2024-01-30T13:41:35;17.48;;;6.72;;
49842;SDS011;55559;48.898;9.184;2024-01-30T13:44:03;16.13;;;7.22;;
49842;SDS011;55559;48.898;9.184;2024-01-30T13:46:30;18.75;;;6.93;;
49842;SDS011;55559;48.898;9.184;2024-01-30T13:48:57;17.58;;;7.30;;
49842;SDS011;55559;48.898;9.184;2024-01-30T13:51:25;23.52;;;7.82;;
49842;SDS011;55559;48.898;9.184;2024-01-30T13:53:52;18.27;;;7.65;;
49842;SDS011;55559;48.898;9.184;2024-01-30T13:56:19;21.63;;;7.55;;
49842;SDS011;55559;48.898;9.184;2024-01-30T13:58:47;19.73;;;7.97;;
49842;SDS011;55559;48.898;9.184;2024-01-30T14:01:14;24.30;;;7.20;;
49842;SDS011;55559;48.898;9.184;2024-01-30T14:03:41;30.00;;;6.85;;
49842;SDS011;55559;48.898;9.184;2024-01-30T14:06:08;17.08;;;7.97;;
49842;SDS011;55559;48.898;9.184;2024-01-30T14:08:37;21.50;;;7.85;;
49842;SDS011;55559;48.898;9.184;2024-01-30T14:11:04;20.38;;;7.55;;
49842;SDS011;55559;48.898;9.184;2024-01-30T14:13:31;15.85;;;6.35;;
49842;SDS011;55559;48.898;9.184;2024-01-30T14:15:58;17.30;;;7.65;;
49842;SDS011;55559;48.898;9.184;2024-01-30T14:18:25;14.38;;;7.25;;
49842;SDS011;55559;48.898;9.184;2024-01-30T14:20:52;16.92;;;7.47;;
49842;SDS011;55559;48.898;9.184;2024-01-30T14:23:20;20.63;;;7.72;;
49842;SDS011;55559;48.898;9.184;2024-01-30T14:25:48;26.80;;;8.10;;
49842;SDS011;55559;48.898;9.184;2024-01-30T14:28:17;18.10;;;7.50;;
49842;SDS011;55559;48.898;9.184;2024-01-30T14:30:44;13.02;;;7.63;;
49842;SDS011;55559;48.898;9.184;2024-01-30T14:33:11;20.52;;;7.03;;
49842;SDS011;55559;48.898;9.184;2024-01-30T14:35:38;20.75;;;8.18;;
49842;SDS011;55559;48.898;9.184;2024-01-30T14:38:05;19.27;;;7.75;;
49842;SDS011;55559;48.898;9.184;2024-01-30T14:40:33;13.65;;;7.47;;
49842;SDS011;55559;48.898;9.184;2024-01-30T14:43:01;19.42;;;8.13;;